sensor_id;sensor_type;location;lat;lon;timestamp;temperature;humidity
61351;DHT22;47119;49.130;9.218;2022-07-30T00:01:54;21.38;69.04
61351;DHT22;47119;49.130;9.218;2022-07-30T00:04:29;21.36;69.40
61351;DHT22;47119;49.130;9.218;2022-07-30T00:06:59;21.35;69.27
61351;DHT22;47119;49.130;9.218;2022-07-30T00:09:28;21.36;69.37
61351;DHT22;47119;49.130;9.218;2022-07-30T00:11:55;21.38;69.39
61351;DHT22;47119;49.130;9.218;2022-07-30T00:14:24;21.38;69.28
61351;DHT22;47119;49.130;9.218;2022-07-30T00:16:54;21.38;69.33
61351;DHT22;47119;49.130;9.218;2022-07-30T00:19:24;21.39;69.37
61351;DHT22;47119;49.130;9.218;2022-07-30T00:21:54;21.38;69.32
61351;DHT22;47119;49.130;9.218;2022-07-30T00:24:26;21.38;69.36
61351;DHT22;47119;49.130;9.218;2022-07-30T00:26:53;21.36;69.94
61351;DHT22;47119;49.130;9.218;2022-07-30T00:29:20;21.38;69.61
61351;DHT22;47119;49.130;9.218;2022-07-30T00:31:49;21.36;69.29
61351;DHT22;47119;49.130;9.218;2022-07-30T00:34:16;21.39;69.86
61351;DHT22;47119;49.130;9.218;2022-07-30T00:36:46;21.41;68.95
61351;DHT22;47119;49.130;9.218;2022-07-30T00:39:19;21.41;69.04
61351;DHT22;47119;49.130;9.218;2022-07-30T00:41:53;21.39;68.95
61351;DHT22;47119;49.130;9.218;2022-07-30T00:44:22;21.38;69.21
61351;DHT22;47119;49.130;9.218;2022-07-30T00:46:52;21.38;69.06
61351;DHT22;47119;49.130;9.218;2022-07-30T00:49:20;21.39;69.28
61351;DHT22;47119;49.130;9.218;2022-07-30T00:51:48;21.39;69.13
61351;DHT22;47119;49.130;9.218;2022-07-30T00:54:16;21.39;69.18
61351;DHT22;47119;49.130;9.218;2022-07-30T00:56:45;21.41;69.04
61351;DHT22;47119;49.130;9.218;2022-07-30T00:59:13;21.39;68.78
61351;DHT22;47119;49.130;9.218;2022-07-30T01:01:43;21.42;68.93
61351;DHT22;47119;49.130;9.218;2022-07-30T01:04:10;21.41;68.84
61351;DHT22;47119;49.130;9.218;2022-07-30T01:06:40;21.39;68.94
61351;DHT22;47119;49.130;9.218;2022-07-30T01:09:07;21.38;68.90
61351;DHT22;47119;49.130;9.218;2022-07-30T01:11:38;21.41;68.57
61351;DHT22;47119;49.130;9.218;2022-07-30T01:14:08;21.39;68.82
61351;DHT22;47119;49.130;9.218;2022-07-30T01:16:39;21.38;68.81
61351;DHT22;47119;49.130;9.218;2022-07-30T01:19:12;21.36;68.49
61351;DHT22;47119;49.130;9.218;2022-07-30T01:22:11;21.34;68.59
61351;DHT22;47119;49.130;9.218;2022-07-30T01:24:51;21.41;68.25
61351;DHT22;47119;49.130;9.218;2022-07-30T01:27:28;21.41;68.50
61351;DHT22;47119;49.130;9.218;2022-07-30T01:30:00;21.38;69.32
61351;DHT22;47119;49.130;9.218;2022-07-30T01:32:32;21.36;68.53
61351;DHT22;47119;49.130;9.218;2022-07-30T01:35:08;21.38;68.34
61351;DHT22;47119;49.130;9.218;2022-07-30T01:37:37;21.38;68.15
61351;DHT22;47119;49.130;9.218;2022-07-30T01:40:06;21.39;68.76
61351;DHT22;47119;49.130;9.218;2022-07-30T01:42:38;21.38;68.53
61351;DHT22;47119;49.130;9.218;2022-07-30T01:45:10;21.39;68.59
61351;DHT22;47119;49.130;9.218;2022-07-30T01:47:40;21.39;68.40
61351;DHT22;47119;49.130;9.218;2022-07-30T01:50:13;21.36;68.62
61351;DHT22;47119;49.130;9.218;2022-07-30T01:52:50;21.39;68.95
61351;DHT22;47119;49.130;9.218;2022-07-30T01:55:23;21.39;68.11
61351;DHT22;47119;49.130;9.218;2022-07-30T01:57:58;21.36;68.72
61351;DHT22;47119;49.130;9.218;2022-07-30T02:00:32;21.39;68.20
61351;DHT22;47119;49.130;9.218;2022-07-30T02:03:05;21.38;68.11
61351;DHT22;47119;49.130;9.218;2022-07-30T02:05:48;21.35;68.25
61351;DHT22;47119;49.130;9.218;2022-07-30T02:08:29;21.36;68.31
61351;DHT22;47119;49.130;9.218;2022-07-30T02:11:07;21.35;68.68
61351;DHT22;47119;49.130;9.218;2022-07-30T02:13:44;21.34;68.38
61351;DHT22;47119;49.130;9.218;2022-07-30T02:16:24;21.32;68.26
61351;DHT22;47119;49.130;9.218;2022-07-30T02:19:01;21.35;68.34
61351;DHT22;47119;49.130;9.218;2022-07-30T02:21:37;21.35;68.04
61351;DHT22;47119;49.130;9.218;2022-07-30T02:24:10;21.29;67.95
61351;DHT22;47119;49.130;9.218;2022-07-30T02:26:40;21.29;68.26
61351;DHT22;47119;49.130;9.218;2022-07-30T02:29:15;21.24;68.27
61351;DHT22;47119;49.130;9.218;2022-07-30T02:31:45;21.29;68.15
61351;DHT22;47119;49.130;9.218;2022-07-30T02:34:18;21.28;68.07
61351;DHT22;47119;49.130;9.218;2022-07-30T02:36:52;21.32;67.88
61351;DHT22;47119;49.130;9.218;2022-07-30T02:39:20;21.32;67.85
61351;DHT22;47119;49.130;9.218;2022-07-30T02:41:51;21.31;67.86
61351;DHT22;47119;49.130;9.218;2022-07-30T02:44:22;21.32;67.50
61351;DHT22;47119;49.130;9.218;2022-07-30T02:46:54;21.32;67.54
61351;DHT22;47119;49.130;9.218;2022-07-30T02:49:46;21.28;67.93
61351;DHT22;47119;49.130;9.218;2022-07-30T02:52:15;21.28;68.20
61351;DHT22;47119;49.130;9.218;2022-07-30T02:54:45;21.34;67.56
61351;DHT22;47119;49.130;9.218;2022-07-30T02:57:16;21.28;67.55
61351;DHT22;47119;49.130;9.218;2022-07-30T02:59:49;21.28;67.50
61351;DHT22;47119;49.130;9.218;2022-07-30T03:02:19;21.28;67.35
61351;DHT22;47119;49.130;9.218;2022-07-30T03:04:48;21.25;67.41
61351;DHT22;47119;49.130;9.218;2022-07-30T03:07:19;21.28;67.48
61351;DHT22;47119;49.130;9.218;2022-07-30T03:09:52;21.26;68.07
61351;DHT22;47119;49.130;9.218;2022-07-30T03:12:24;21.26;67.43
61351;DHT22;47119;49.130;9.218;2022-07-30T03:14:56;21.25;67.52
61351;DHT22;47119;49.130;9.218;2022-07-30T03:17:25;21.28;67.50
61351;DHT22;47119;49.130;9.218;2022-07-30T03:20:05;21.24;67.30
61351;DHT22;47119;49.130;9.218;2022-07-30T03:22:35;21.22;67.46
61351;DHT22;47119;49.130;9.218;2022-07-30T03:25:08;21.24;67.36
61351;DHT22;47119;49.130;9.218;2022-07-30T03:27:40;21.25;67.20
61351;DHT22;47119;49.130;9.218;2022-07-30T03:30:11;21.26;67.13
61351;DHT22;47119;49.130;9.218;2022-07-30T03:32:40;21.25;67.02
61351;DHT22;47119;49.130;9.218;2022-07-30T03:35:08;21.24;67.09
61351;DHT22;47119;49.130;9.218;2022-07-30T03:37:38;21.22;67.31
61351;DHT22;47119;49.130;9.218;2022-07-30T03:40:06;21.24;67.27
61351;DHT22;47119;49.130;9.218;2022-07-30T03:42:37;21.25;67.30
61351;DHT22;47119;49.130;9.218;2022-07-30T03:45:10;21.24;66.92
61351;DHT22;47119;49.130;9.218;2022-07-30T03:47:42;21.22;67.07
61351;DHT22;47119;49.130;9.218;2022-07-30T03:50:12;21.22;67.07
61351;DHT22;47119;49.130;9.218;2022-07-30T03:52:43;21.21;67.40
61351;DHT22;47119;49.130;9.218;2022-07-30T03:55:17;21.21;66.74
61351;DHT22;47119;49.130;9.218;2022-07-30T03:57:44;21.19;67.11
61351;DHT22;47119;49.130;9.218;2022-07-30T04:00:14;21.19;67.16
61351;DHT22;47119;49.130;9.218;2022-07-30T04:02:48;21.18;66.82
61351;DHT22;47119;49.130;9.218;2022-07-30T04:05:18;21.22;66.51
61351;DHT22;47119;49.130;9.218;2022-07-30T04:07:47;21.21;67.14
61351;DHT22;47119;49.130;9.218;2022-07-30T04:10:18;21.21;66.93
61351;DHT22;47119;49.130;9.218;2022-07-30T04:13:11;21.18;66.80
61351;DHT22;47119;49.130;9.218;2022-07-30T04:15:48;21.16;66.94
61351;DHT22;47119;49.130;9.218;2022-07-30T04:18:23;21.18;67.35
61351;DHT22;47119;49.130;9.218;2022-07-30T04:20:56;21.19;66.34
61351;DHT22;47119;49.130;9.218;2022-07-30T04:23:25;21.19;66.90
61351;DHT22;47119;49.130;9.218;2022-07-30T04:25:57;21.19;67.26
61351;DHT22;47119;49.130;9.218;2022-07-30T04:28:26;21.19;65.93
61351;DHT22;47119;49.130;9.218;2022-07-30T04:30:57;21.21;65.89
61351;DHT22;47119;49.130;9.218;2022-07-30T04:33:27;21.21;66.19
61351;DHT22;47119;49.130;9.218;2022-07-30T04:36:07;21.19;66.42
61351;DHT22;47119;49.130;9.218;2022-07-30T04:38:36;21.21;65.58
61351;DHT22;47119;49.130;9.218;2022-07-30T04:41:03;21.15;65.89
61351;DHT22;47119;49.130;9.218;2022-07-30T04:44:11;21.18;65.77
61351;DHT22;47119;49.130;9.218;2022-07-30T04:46:48;21.19;65.74
61351;DHT22;47119;49.130;9.218;2022-07-30T04:49:19;21.19;65.60
61351;DHT22;47119;49.130;9.218;2022-07-30T04:51:49;21.22;65.59
61351;DHT22;47119;49.130;9.218;2022-07-30T04:54:19;21.19;65.76
61351;DHT22;47119;49.130;9.218;2022-07-30T04:56:47;21.18;65.33
61351;DHT22;47119;49.130;9.218;2022-07-30T04:59:17;21.19;65.35
61351;DHT22;47119;49.130;9.218;2022-07-30T05:01:50;21.19;66.10
61351;DHT22;47119;49.130;9.218;2022-07-30T05:04:18;21.18;65.29
61351;DHT22;47119;49.130;9.218;2022-07-30T05:06:48;21.21;66.29
61351;DHT22;47119;49.130;9.218;2022-07-30T05:09:16;21.21;65.53
61351;DHT22;47119;49.130;9.218;2022-07-30T05:11:49;21.21;65.81
61351;DHT22;47119;49.130;9.218;2022-07-30T05:14:19;21.22;65.59
61351;DHT22;47119;49.130;9.218;2022-07-30T05:16:48;21.24;65.16
61351;DHT22;47119;49.130;9.218;2022-07-30T05:19:24;21.24;65.27
61351;DHT22;47119;49.130;9.218;2022-07-30T05:21:51;21.24;65.07
61351;DHT22;47119;49.130;9.218;2022-07-30T05:24:18;21.24;65.42
61351;DHT22;47119;49.130;9.218;2022-07-30T05:26:52;21.24;65.63
61351;DHT22;47119;49.130;9.218;2022-07-30T05:29:20;21.25;64.77
61351;DHT22;47119;49.130;9.218;2022-07-30T05:31:53;21.21;64.77
61351;DHT22;47119;49.130;9.218;2022-07-30T05:34:20;21.25;64.73
61351;DHT22;47119;49.130;9.218;2022-07-30T05:36:47;21.18;64.76
61351;DHT22;47119;49.130;9.218;2022-07-30T05:39:16;21.22;64.95
61351;DHT22;47119;49.130;9.218;2022-07-30T05:42:02;21.22;64.61
61351;DHT22;47119;49.130;9.218;2022-07-30T05:44:35;21.24;64.44
61351;DHT22;47119;49.130;9.218;2022-07-30T05:47:06;21.24;64.43
61351;DHT22;47119;49.130;9.218;2022-07-30T05:49:33;21.25;64.37
61351;DHT22;47119;49.130;9.218;2022-07-30T05:52:06;21.24;64.70
61351;DHT22;47119;49.130;9.218;2022-07-30T05:54:34;21.28;64.71
61351;DHT22;47119;49.130;9.218;2022-07-30T05:57:23;21.25;64.99
61351;DHT22;47119;49.130;9.218;2022-07-30T05:59:50;21.26;64.55
61351;DHT22;47119;49.130;9.218;2022-07-30T06:02:27;21.25;65.28
61351;DHT22;47119;49.130;9.218;2022-07-30T06:05:18;21.28;65.38
61351;DHT22;47119;49.130;9.218;2022-07-30T06:07:45;21.29;64.52
61351;DHT22;47119;49.130;9.218;2022-07-30T06:10:14;21.29;64.28
61351;DHT22;47119;49.130;9.218;2022-07-30T06:12:41;21.31;64.81
61351;DHT22;47119;49.130;9.218;2022-07-30T06:15:14;21.29;65.02
61351;DHT22;47119;49.130;9.218;2022-07-30T06:17:46;21.26;64.73
61351;DHT22;47119;49.130;9.218;2022-07-30T06:20:16;21.28;64.01
61351;DHT22;47119;49.130;9.218;2022-07-30T06:22:59;21.31;64.54
61351;DHT22;47119;49.130;9.218;2022-07-30T06:25:39;21.28;65.35
61351;DHT22;47119;49.130;9.218;2022-07-30T06:28:06;21.28;64.47
61351;DHT22;47119;49.130;9.218;2022-07-30T06:30:35;21.32;64.60
61351;DHT22;47119;49.130;9.218;2022-07-30T06:33:08;21.32;64.30
61351;DHT22;47119;49.130;9.218;2022-07-30T06:35:44;21.31;63.90
61351;DHT22;47119;49.130;9.218;2022-07-30T06:38:14;21.28;63.97
61351;DHT22;47119;49.130;9.218;2022-07-30T06:40:58;21.28;64.78
61351;DHT22;47119;49.130;9.218;2022-07-30T06:43:43;21.29;64.84
61351;DHT22;47119;49.130;9.218;2022-07-30T06:46:32;21.29;64.14
61351;DHT22;47119;49.130;9.218;2022-07-30T06:49:01;21.32;64.12
61351;DHT22;47119;49.130;9.218;2022-07-30T06:51:28;21.34;64.89
61351;DHT22;47119;49.130;9.218;2022-07-30T06:53:55;21.35;64.37
61351;DHT22;47119;49.130;9.218;2022-07-30T06:56:34;21.36;64.14
61351;DHT22;47119;49.130;9.218;2022-07-30T06:59:04;21.35;64.76
61351;DHT22;47119;49.130;9.218;2022-07-30T07:01:56;21.36;64.95
61351;DHT22;47119;49.130;9.218;2022-07-30T07:04:27;21.36;64.87
61351;DHT22;47119;49.130;9.218;2022-07-30T07:06:54;21.39;65.43
61351;DHT22;47119;49.130;9.218;2022-07-30T07:09:31;21.38;65.71
61351;DHT22;47119;49.130;9.218;2022-07-30T07:12:18;21.39;65.78
61351;DHT22;47119;49.130;9.218;2022-07-30T07:14:46;21.41;65.87
61351;DHT22;47119;49.130;9.218;2022-07-30T07:17:16;21.38;66.21
61351;DHT22;47119;49.130;9.218;2022-07-30T07:20:11;21.42;65.53
61351;DHT22;47119;49.130;9.218;2022-07-30T07:22:46;21.42;65.68
61351;DHT22;47119;49.130;9.218;2022-07-30T07:25:16;21.42;65.95
61351;DHT22;47119;49.130;9.218;2022-07-30T07:27:43;21.42;65.80
61351;DHT22;47119;49.130;9.218;2022-07-30T07:30:13;21.43;66.49
61351;DHT22;47119;49.130;9.218;2022-07-30T07:32:41;21.46;66.16
61351;DHT22;47119;49.130;9.218;2022-07-30T07:35:12;21.45;65.67
61351;DHT22;47119;49.130;9.218;2022-07-30T07:37:44;21.43;65.25
61351;DHT22;47119;49.130;9.218;2022-07-30T07:40:18;21.45;65.36
61351;DHT22;47119;49.130;9.218;2022-07-30T07:42:46;21.47;66.43
61351;DHT22;47119;49.130;9.218;2022-07-30T07:45:17;21.47;65.21
61351;DHT22;47119;49.130;9.218;2022-07-30T07:47:54;21.47;65.43
61351;DHT22;47119;49.130;9.218;2022-07-30T07:50:59;21.47;65.42
61351;DHT22;47119;49.130;9.218;2022-07-30T07:53:32;21.47;65.94
61351;DHT22;47119;49.130;9.218;2022-07-30T07:56:02;21.47;66.30
61351;DHT22;47119;49.130;9.218;2022-07-30T07:58:33;21.49;66.08
61351;DHT22;47119;49.130;9.218;2022-07-30T08:01:03;21.47;66.64
61351;DHT22;47119;49.130;9.218;2022-07-30T08:04:17;21.46;66.74
61351;DHT22;47119;49.130;9.218;2022-07-30T08:07:04;21.47;66.25
61351;DHT22;47119;49.130;9.218;2022-07-30T08:10:06;21.49;67.19
61351;DHT22;47119;49.130;9.218;2022-07-30T08:12:49;21.50;66.37
61351;DHT22;47119;49.130;9.218;2022-07-30T08:15:34;21.55;65.85
61351;DHT22;47119;49.130;9.218;2022-07-30T08:18:22;21.52;65.95
61351;DHT22;47119;49.130;9.218;2022-07-30T08:21:03;21.55;65.85
61351;DHT22;47119;49.130;9.218;2022-07-30T08:23:34;21.55;65.83
61351;DHT22;47119;49.130;9.218;2022-07-30T08:26:05;21.56;65.88
61351;DHT22;47119;49.130;9.218;2022-07-30T08:28:54;21.53;65.61
61351;DHT22;47119;49.130;9.218;2022-07-30T08:31:23;21.50;66.32
61351;DHT22;47119;49.130;9.218;2022-07-30T08:33:51;21.56;65.75
61351;DHT22;47119;49.130;9.218;2022-07-30T08:36:18;21.53;65.82
61351;DHT22;47119;49.130;9.218;2022-07-30T08:38:46;21.52;65.70
61351;DHT22;47119;49.130;9.218;2022-07-30T08:41:16;21.53;65.63
61351;DHT22;47119;49.130;9.218;2022-07-30T08:43:49;21.56;65.71
61351;DHT22;47119;49.130;9.218;2022-07-30T08:46:21;21.52;65.68
61351;DHT22;47119;49.130;9.218;2022-07-30T08:49:10;21.56;65.55
61351;DHT22;47119;49.130;9.218;2022-07-30T08:51:43;21.56;65.55
61351;DHT22;47119;49.130;9.218;2022-07-30T08:54:58;21.55;66.26
61351;DHT22;47119;49.130;9.218;2022-07-30T08:57:33;21.46;67.10
61351;DHT22;47119;49.130;9.218;2022-07-30T09:00:06;21.52;66.28
61351;DHT22;47119;49.130;9.218;2022-07-30T09:02:38;21.53;66.45
61351;DHT22;47119;49.130;9.218;2022-07-30T09:05:10;21.53;66.29
61351;DHT22;47119;49.130;9.218;2022-07-30T09:07:41;21.52;66.25
61351;DHT22;47119;49.130;9.218;2022-07-30T09:10:17;21.50;66.97
61351;DHT22;47119;49.130;9.218;2022-07-30T09:12:49;21.53;66.61
61351;DHT22;47119;49.130;9.218;2022-07-30T09:15:18;21.55;66.30
61351;DHT22;47119;49.130;9.218;2022-07-30T09:17:54;21.56;66.03
61351;DHT22;47119;49.130;9.218;2022-07-30T09:20:26;21.57;66.00
61351;DHT22;47119;49.130;9.218;2022-07-30T09:22:56;21.57;66.53
61351;DHT22;47119;49.130;9.218;2022-07-30T09:25:40;21.55;66.76
61351;DHT22;47119;49.130;9.218;2022-07-30T09:28:28;21.55;66.41
61351;DHT22;47119;49.130;9.218;2022-07-30T09:31:13;21.57;66.16
61351;DHT22;47119;49.130;9.218;2022-07-30T09:33:59;21.56;65.77
61351;DHT22;47119;49.130;9.218;2022-07-30T09:37:03;21.47;67.05
61351;DHT22;47119;49.130;9.218;2022-07-30T09:40:11;21.53;66.45
61351;DHT22;47119;49.130;9.218;2022-07-30T09:43:19;21.56;66.64
61351;DHT22;47119;49.130;9.218;2022-07-30T09:45:56;21.47;66.72
61351;DHT22;47119;49.130;9.218;2022-07-30T09:48:27;21.49;66.64
61351;DHT22;47119;49.130;9.218;2022-07-30T09:50:55;21.52;66.09
61351;DHT22;47119;49.130;9.218;2022-07-30T09:53:22;21.59;66.06
61351;DHT22;47119;49.130;9.218;2022-07-30T09:55:53;21.53;66.08
61351;DHT22;47119;49.130;9.218;2022-07-30T09:58:22;21.53;66.21
61351;DHT22;47119;49.130;9.218;2022-07-30T10:00:55;21.60;65.85
61351;DHT22;47119;49.130;9.218;2022-07-30T10:03:49;21.59;66.66
61351;DHT22;47119;49.130;9.218;2022-07-30T10:06:35;21.57;66.79
61351;DHT22;47119;49.130;9.218;2022-07-30T10:09:08;21.56;66.08
61351;DHT22;47119;49.130;9.218;2022-07-30T10:11:38;21.57;65.59
61351;DHT22;47119;49.130;9.218;2022-07-30T10:14:06;21.60;66.24
61351;DHT22;47119;49.130;9.218;2022-07-30T10:16:34;21.56;66.17
61351;DHT22;47119;49.130;9.218;2022-07-30T10:19:01;21.56;66.15
61351;DHT22;47119;49.130;9.218;2022-07-30T10:21:32;21.57;65.82
61351;DHT22;47119;49.130;9.218;2022-07-30T10:24:42;21.59;66.46
61351;DHT22;47119;49.130;9.218;2022-07-30T10:27:33;21.59;65.79
61351;DHT22;47119;49.130;9.218;2022-07-30T10:30:20;21.62;65.94
61351;DHT22;47119;49.130;9.218;2022-07-30T10:32:47;21.62;65.55
61351;DHT22;47119;49.130;9.218;2022-07-30T10:35:20;21.56;66.03
61351;DHT22;47119;49.130;9.218;2022-07-30T10:37:52;21.57;65.89
61351;DHT22;47119;49.130;9.218;2022-07-30T10:40:29;21.62;65.48
61351;DHT22;47119;49.130;9.218;2022-07-30T10:43:23;21.60;64.98
61351;DHT22;47119;49.130;9.218;2022-07-30T10:46:16;21.59;64.97
61351;DHT22;47119;49.130;9.218;2022-07-30T10:48:52;21.55;65.43
61351;DHT22;47119;49.130;9.218;2022-07-30T10:51:20;21.57;64.74
61351;DHT22;47119;49.130;9.218;2022-07-30T10:53:48;21.63;65.71
61351;DHT22;47119;49.130;9.218;2022-07-30T10:56:17;21.59;65.56
61351;DHT22;47119;49.130;9.218;2022-07-30T10:59:01;21.52;65.88
61351;DHT22;47119;49.130;9.218;2022-07-30T11:02:09;21.43;66.78
61351;DHT22;47119;49.130;9.218;2022-07-30T11:04:44;21.49;66.41
61351;DHT22;47119;49.130;9.218;2022-07-30T11:07:28;21.57;65.73
61351;DHT22;47119;49.130;9.218;2022-07-30T11:10:03;21.57;65.90
61351;DHT22;47119;49.130;9.218;2022-07-30T11:12:53;21.57;65.52
61351;DHT22;47119;49.130;9.218;2022-07-30T11:18:30;21.62;65.38
61351;DHT22;47119;49.130;9.218;2022-07-30T11:21:19;21.56;66.24
61351;DHT22;47119;49.130;9.218;2022-07-30T11:23:48;21.60;65.44
61351;DHT22;47119;49.130;9.218;2022-07-30T11:26:49;21.60;65.29
61351;DHT22;47119;49.130;9.218;2022-07-30T11:29:36;21.47;66.47
61351;DHT22;47119;49.130;9.218;2022-07-30T11:32:32;21.45;66.41
61351;DHT22;47119;49.130;9.218;2022-07-30T11:35:18;21.55;65.54
61351;DHT22;47119;49.130;9.218;2022-07-30T11:37:54;21.57;65.66
61351;DHT22;47119;49.130;9.218;2022-07-30T11:40:33;21.57;65.80
61351;DHT22;47119;49.130;9.218;2022-07-30T11:43:19;21.59;65.58
61351;DHT22;47119;49.130;9.218;2022-07-30T11:45:49;21.65;65.44
61351;DHT22;47119;49.130;9.218;2022-07-30T11:48:19;21.63;65.89
61351;DHT22;47119;49.130;9.218;2022-07-30T11:50:48;21.65;65.39
61351;DHT22;47119;49.130;9.218;2022-07-30T11:53:17;21.65;65.01
61351;DHT22;47119;49.130;9.218;2022-07-30T11:55:51;21.62;65.21
61351;DHT22;47119;49.130;9.218;2022-07-30T11:58:28;21.63;65.11
61351;DHT22;47119;49.130;9.218;2022-07-30T12:00:58;21.66;65.06
61351;DHT22;47119;49.130;9.218;2022-07-30T12:03:27;21.67;65.20
61351;DHT22;47119;49.130;9.218;2022-07-30T12:06:02;21.65;65.11
61351;DHT22;47119;49.130;9.218;2022-07-30T12:08:39;21.65;65.04
61351;DHT22;47119;49.130;9.218;2022-07-30T12:11:07;21.66;64.71
61351;DHT22;47119;49.130;9.218;2022-07-30T12:13:37;21.65;64.92
61351;DHT22;47119;49.130;9.218;2022-07-30T12:16:10;21.62;64.71
61351;DHT22;47119;49.130;9.218;2022-07-30T12:18:45;21.56;65.67
61351;DHT22;47119;49.130;9.218;2022-07-30T12:21:15;21.62;65.44
61351;DHT22;47119;49.130;9.218;2022-07-30T12:23:53;21.60;65.10
61351;DHT22;47119;49.130;9.218;2022-07-30T12:26:25;21.63;65.44
61351;DHT22;47119;49.130;9.218;2022-07-30T12:28:56;21.65;64.86
61351;DHT22;47119;49.130;9.218;2022-07-30T12:31:28;21.63;65.38
61351;DHT22;47119;49.130;9.218;2022-07-30T12:33:58;21.60;65.69
61351;DHT22;47119;49.130;9.218;2022-07-30T12:36:29;21.62;65.03
61351;DHT22;47119;49.130;9.218;2022-07-30T12:38:58;21.60;65.79
61351;DHT22;47119;49.130;9.218;2022-07-30T12:41:42;21.63;65.33
61351;DHT22;47119;49.130;9.218;2022-07-30T12:44:33;21.60;65.18
61351;DHT22;47119;49.130;9.218;2022-07-30T12:47:01;21.65;65.11
61351;DHT22;47119;49.130;9.218;2022-07-30T12:49:30;21.65;65.17
61351;DHT22;47119;49.130;9.218;2022-07-30T12:51:59;21.66;65.26
61351;DHT22;47119;49.130;9.218;2022-07-30T12:54:32;21.65;64.98
61351;DHT22;47119;49.130;9.218;2022-07-30T12:57:03;21.62;64.96
61351;DHT22;47119;49.130;9.218;2022-07-30T12:59:36;21.65;64.65
61351;DHT22;47119;49.130;9.218;2022-07-30T13:02:03;21.67;64.86
61351;DHT22;47119;49.130;9.218;2022-07-30T13:04:30;21.66;64.17
61351;DHT22;47119;49.130;9.218;2022-07-30T13:07:06;21.70;64.23
61351;DHT22;47119;49.130;9.218;2022-07-30T13:09:35;21.65;64.85
61351;DHT22;47119;49.130;9.218;2022-07-30T13:12:03;21.62;65.13
61351;DHT22;47119;49.130;9.218;2022-07-30T13:14:31;21.49;65.44
61351;DHT22;47119;49.130;9.218;2022-07-30T13:16:59;21.59;64.81
61351;DHT22;47119;49.130;9.218;2022-07-30T13:19:33;21.66;64.35
61351;DHT22;47119;49.130;9.218;2022-07-30T13:22:00;21.65;64.72
61351;DHT22;47119;49.130;9.218;2022-07-30T13:24:28;21.65;64.55
61351;DHT22;47119;49.130;9.218;2022-07-30T13:26:58;21.60;65.53
61351;DHT22;47119;49.130;9.218;2022-07-30T13:29:26;21.55;65.80
61351;DHT22;47119;49.130;9.218;2022-07-30T13:31:57;21.62;65.11
61351;DHT22;47119;49.130;9.218;2022-07-30T13:34:24;21.67;64.21
61351;DHT22;47119;49.130;9.218;2022-07-30T13:36:51;21.65;64.62
61351;DHT22;47119;49.130;9.218;2022-07-30T13:39:18;21.65;65.37
61351;DHT22;47119;49.130;9.218;2022-07-30T13:41:46;21.67;64.93
61351;DHT22;47119;49.130;9.218;2022-07-30T13:44:16;21.69;64.46
61351;DHT22;47119;49.130;9.218;2022-07-30T13:46:43;21.70;64.61
61351;DHT22;47119;49.130;9.218;2022-07-30T13:49:10;21.69;65.22
61351;DHT22;47119;49.130;9.218;2022-07-30T13:51:39;21.69;64.40
61351;DHT22;47119;49.130;9.218;2022-07-30T13:54:07;21.69;64.81
61351;DHT22;47119;49.130;9.218;2022-07-30T13:56:34;21.69;65.01
61351;DHT22;47119;49.130;9.218;2022-07-30T13:59:05;21.59;65.10
61351;DHT22;47119;49.130;9.218;2022-07-30T14:01:35;21.57;65.01
61351;DHT22;47119;49.130;9.218;2022-07-30T14:04:05;21.65;64.46
61351;DHT22;47119;49.130;9.218;2022-07-30T14:06:33;21.65;64.60
61351;DHT22;47119;49.130;9.218;2022-07-30T14:09:11;21.65;65.31
61351;DHT22;47119;49.130;9.218;2022-07-30T14:11:52;21.63;65.67
61351;DHT22;47119;49.130;9.218;2022-07-30T14:14:27;21.66;64.73
61351;DHT22;47119;49.130;9.218;2022-07-30T14:16:54;21.70;64.87
61351;DHT22;47119;49.130;9.218;2022-07-30T14:19:26;21.67;64.53
61351;DHT22;47119;49.130;9.218;2022-07-30T14:21:54;21.70;64.63
61351;DHT22;47119;49.130;9.218;2022-07-30T14:24:26;21.70;64.34
61351;DHT22;47119;49.130;9.218;2022-07-30T14:26:56;21.72;64.76
61351;DHT22;47119;49.130;9.218;2022-07-30T14:29:23;21.70;65.10
61351;DHT22;47119;49.130;9.218;2022-07-30T14:31:54;21.62;64.75
61351;DHT22;47119;49.130;9.218;2022-07-30T14:34:27;21.65;64.75
61351;DHT22;47119;49.130;9.218;2022-07-30T14:36:54;21.70;64.60
61351;DHT22;47119;49.130;9.218;2022-07-30T14:39:21;21.67;65.14
61351;DHT22;47119;49.130;9.218;2022-07-30T14:41:48;21.67;64.55
61351;DHT22;47119;49.130;9.218;2022-07-30T14:44:17;21.70;64.85
61351;DHT22;47119;49.130;9.218;2022-07-30T14:46:44;21.67;64.61
61351;DHT22;47119;49.130;9.218;2022-07-30T14:49:13;21.69;64.21
61351;DHT22;47119;49.130;9.218;2022-07-30T14:51:41;21.66;65.15
61351;DHT22;47119;49.130;9.218;2022-07-30T14:54:08;21.72;64.34
61351;DHT22;47119;49.130;9.218;2022-07-30T14:56:36;21.72;64.52
61351;DHT22;47119;49.130;9.218;2022-07-30T14:59:04;21.69;64.68
61351;DHT22;47119;49.130;9.218;2022-07-30T15:01:33;21.70;64.38
61351;DHT22;47119;49.130;9.218;2022-07-30T15:04:01;21.72;64.54
61351;DHT22;47119;49.130;9.218;2022-07-30T15:06:29;21.73;64.05
61351;DHT22;47119;49.130;9.218;2022-07-30T15:08:56;21.73;64.11
61351;DHT22;47119;49.130;9.218;2022-07-30T15:11:26;21.72;63.81
61351;DHT22;47119;49.130;9.218;2022-07-30T15:13:53;21.66;64.17
61351;DHT22;47119;49.130;9.218;2022-07-30T15:16:20;21.65;64.60
61351;DHT22;47119;49.130;9.218;2022-07-30T15:18:49;21.65;64.53
61351;DHT22;47119;49.130;9.218;2022-07-30T15:21:16;21.70;64.66
61351;DHT22;47119;49.130;9.218;2022-07-30T15:23:47;21.73;64.19
61351;DHT22;47119;49.130;9.218;2022-07-30T15:26:14;21.67;64.14
61351;DHT22;47119;49.130;9.218;2022-07-30T15:28:44;21.69;63.94
61351;DHT22;47119;49.130;9.218;2022-07-30T15:31:13;21.73;63.78
61351;DHT22;47119;49.130;9.218;2022-07-30T15:33:40;21.72;63.81
61351;DHT22;47119;49.130;9.218;2022-07-30T15:36:10;21.72;64.04
61351;DHT22;47119;49.130;9.218;2022-07-30T15:38:40;21.69;64.41
61351;DHT22;47119;49.130;9.218;2022-07-30T15:41:09;21.67;63.44
61351;DHT22;47119;49.130;9.218;2022-07-30T15:43:38;21.72;63.62
61351;DHT22;47119;49.130;9.218;2022-07-30T15:46:05;21.74;63.46
61351;DHT22;47119;49.130;9.218;2022-07-30T15:48:32;21.72;63.31
61351;DHT22;47119;49.130;9.218;2022-07-30T15:51:03;21.73;64.21
61351;DHT22;47119;49.130;9.218;2022-07-30T15:53:31;21.73;63.76
61351;DHT22;47119;49.130;9.218;2022-07-30T15:55:59;21.72;63.50
61351;DHT22;47119;49.130;9.218;2022-07-30T15:58:28;21.74;63.35
61351;DHT22;47119;49.130;9.218;2022-07-30T16:00:55;21.74;63.36
61351;DHT22;47119;49.130;9.218;2022-07-30T16:03:22;21.69;63.84
61351;DHT22;47119;49.130;9.218;2022-07-30T16:05:51;21.65;63.98
61351;DHT22;47119;49.130;9.218;2022-07-30T16:08:24;21.69;64.15
61351;DHT22;47119;49.130;9.218;2022-07-30T16:10:53;21.73;63.43
61351;DHT22;47119;49.130;9.218;2022-07-30T16:13:20;21.73;63.11